Time;durP1;ratioP1;P1;durP2;ratioP2;P2;SDS_P1;SDS_P2;PMS_P1;PMS_P2;Temp;Humidity;BMP_temperature;BMP_pressure;BME280_temperature;BME280_humidity;BME280_pressure;Samples;Min_cycle;Max_cycle;Signal;HPM_P1;HPM_P2
2023/10/28 00:04:26;;;;;;;15.20;10.60;;;;;;;8.34;92.59;97933.35;217528;1259;139752;-70
2023/10/28 00:09:32;;;;;;;14.50;10.70;;;;;;;8.30;92.37;97935.38;218844;1259;140861;-72
2023/10/28 00:14:37;;;;;;;14.40;9.00;;;;;;;8.23;92.37;97933.48;217705;1260;140767;-69
2023/10/28 00:19:42;;;;;;;13.90;9.50;;;;;;;8.20;92.10;97937.77;218157;1261;141954;-68
2023/10/28 00:24:47;;;;;;;9.60;7.70;;;;;;;8.13;91.93;97941.10;217458;1260;140037;-67
2023/10/28 00:29:53;;;;;;;10.50;8.30;;;;;;;8.04;91.94;97943.29;218113;1260;139899;-69
2023/10/28 00:34:59;;;;;;;10.70;8.30;;;;;;;7.98;91.86;97953.14;217411;1260;140334;-68
2023/10/28 00:40:08;;;;;;;9.90;7.20;;;;;;;7.91;91.66;97952.98;217825;1259;139993;-69
2023/10/28 00:45:15;;;;;;;12.80;8.80;;;;;;;7.88;92.02;97964.02;217575;1259;139837;-68
2023/10/28 00:50:24;;;;;;;10.20;7.20;;;;;;;7.85;92.04;97969.19;218411;1259;140554;-69
2023/10/28 00:55:30;;;;;;;11.30;7.40;;;;;;;7.80;91.93;97976.06;217979;1260;140999;-68
2023/10/28 01:00:36;;;;;;;10.80;7.40;;;;;;;7.76;91.98;97976.79;217349;1261;140203;-68
2023/10/28 01:05:42;;;;;;;8.70;6.00;;;;;;;7.73;91.86;97980.64;218437;1260;140212;-68
2023/10/28 01:10:47;;;;;;;7.10;5.30;;;;;;;7.70;91.59;97982.75;218525;1259;139833;-68
2023/10/28 01:15:51;;;;;;;6.70;4.40;;;;;;;7.67;91.30;97982.48;219181;1258;140009;-68
2023/10/28 01:20:56;;;;;;;10.00;4.80;;;;;;;7.63;91.27;97984.21;218700;1259;140716;-68
2023/10/28 01:26:01;;;;;;;6.80;4.50;;;;;;;7.59;91.09;97984.67;218676;1258;140251;-68
2023/10/28 01:31:08;;;;;;;9.30;5.30;;;;;;;7.55;91.33;97980.73;218704;1260;139897;-68
2023/10/28 01:36:12;;;;;;;15.90;5.50;;;;;;;7.50;90.80;97985.48;219460;1259;141450;-68
2023/10/28 01:41:16;;;;;;;6.50;5.10;;;;;;;7.45;90.93;97985.55;219914;1258;140320;-68
2023/10/28 01:46:20;;;;;;;4.60;4.00;;;;;;;7.41;90.65;97983.36;220096;1259;139973;-68
2023/10/28 01:51:25;;;;;;;5.80;4.10;;;;;;;7.42;90.83;97984.16;219946;1259;140506;-68
2023/10/28 01:56:29;;;;;;;5.90;4.10;;;;;;;7.41;90.86;97993.90;219230;1259;141210;-68
2023/10/28 02:01:35;;;;;;;8.00;4.60;;;;;;;7.39;90.78;97994.53;219079;1259;142346;-68
2023/10/28 02:06:41;;;;;;;7.60;6.00;;;;;;;7.39;90.89;97995.84;218084;1257;140286;-69
2023/10/28 02:11:46;;;;;;;9.10;5.30;;;;;;;7.39;91.15;98003.86;218866;1257;141400;-69
2023/10/28 02:16:54;;;;;;;6.30;5.70;;;;;;;7.40;91.13;98007.15;217486;1258;555946;-68
2023/10/28 02:21:59;;;;;;;5.50;3.60;;;;;;;7.38;91.16;98012.54;217962;1259;139724;-68
2023/10/28 02:27:17;;;;;;;6.50;4.50;;;;;;;7.32;91.30;98019.90;217699;1257;237786;-68
2023/10/28 02:32:22;;;;;;;6.90;4.50;;;;;;;7.31;91.88;98031.65;218652;1259;140257;-68
2023/10/28 02:37:27;;;;;;;5.70;5.10;;;;;;;7.31;91.51;98037.76;218362;1257;140388;-68
2023/10/28 02:42:31;;;;;;;6.30;4.20;;;;;;;7.32;91.61;98042.15;217620;1258;140069;-68
2023/10/28 02:47:36;;;;;;;5.80;4.10;;;;;;;7.31;91.98;98044.27;218233;1259;140262;-68
2023/10/28 02:52:40;;;;;;;6.60;4.60;;;;;;;7.31;91.99;98053.23;218513;1257;140575;-67
2023/10/28 02:57:45;;;;;;;6.00;4.80;;;;;;;7.31;92.00;98056.04;218709;1257;139666;-69
2023/10/28 03:02:52;;;;;;;6.50;5.10;;;;;;;7.31;92.10;98066.02;217430;1257;140354;-68
2023/10/28 03:07:57;;;;;;;6.90;4.60;;;;;;;7.31;91.79;98068.07;219718;1259;139871;-69
2023/10/28 03:13:02;;;;;;;4.60;3.30;;;;;;;7.27;91.84;98076.05;219004;1258;140166;-68
2023/10/28 03:18:05;;;;;;;6.70;4.90;;;;;;;7.19;91.02;98076.92;218688;1260;140278;-69
2023/10/28 03:23:10;;;;;;;7.10;4.80;;;;;;;7.14;91.19;98072.85;218418;1259;140283;-69
2023/10/28 03:28:15;;;;;;;7.40;5.10;;;;;;;7.10;91.63;98075.42;218896;1258;139841;-68
2023/10/28 03:33:22;;;;;;;5.50;4.90;;;;;;;7.13;91.55;98078.15;219423;1258;140596;-69
2023/10/28 03:38:27;;;;;;;6.20;5.10;;;;;;;7.15;91.71;98076.30;219841;1258;141724;-68
2023/10/28 03:43:31;;;;;;;5.60;4.70;;;;;;;7.14;91.69;98082.98;219619;1259;140659;-68
2023/10/28 03:48:35;;;;;;;5.90;3.80;;;;;;;7.15;91.41;98087.48;220214;1259;140007;-68
2023/10/28 03:53:40;;;;;;;6.80;2.70;;;;;;;7.13;91.31;98094.36;218175;1259;142082;-68
2023/10/28 03:58:44;;;;;;;5.30;3.40;;;;;;;7.09;91.35;98097.45;220036;1259;140533;-68
2023/10/28 04:03:50;;;;;;;6.60;3.40;;;;;;;7.09;91.43;98099.79;218831;1258;140825;-68
2023/10/28 04:08:55;;;;;;;4.90;3.90;;;;;;;7.08;91.04;98100.09;217952;1257;140022;-68
2023/10/28 04:14:00;;;;;;;4.50;3.10;;;;;;;7.05;90.62;98101.71;218243;1258;140577;-67
2023/10/28 04:19:05;;;;;;;6.80;2.80;;;;;;;7.03;91.12;98101.75;217735;1259;139907;-67
2023/10/28 04:24:10;;;;;;;4.20;2.80;;;;;;;7.01;91.08;98109.64;218524;1258;140936;-68
2023/10/28 04:29:14;;;;;;;3.30;2.60;;;;;;;6.99;91.02;98112.43;217380;1257;161070;-66
2023/10/28 04:34:19;;;;;;;3.00;2.60;;;;;;;6.93;91.23;98110.46;217938;1258;141928;-67
2023/10/28 04:39:25;;;;;;;3.10;2.00;;;;;;;6.92;91.34;98109.66;217780;1261;139699;-66
2023/10/28 04:44:30;;;;;;;4.00;2.40;;;;;;;6.91;91.43;98117.70;217399;1261;139617;-66
2023/10/28 04:49:34;;;;;;;4.00;2.30;;;;;;;6.91;91.71;98124.42;217706;1258;140017;-67
2023/10/28 04:54:39;;;;;;;3.20;2.40;;;;;;;6.90;91.74;98128.96;217946;1257;140807;-66
2023/10/28 04:59:43;;;;;;;4.00;3.00;;;;;;;6.88;91.82;98130.64;218334;1259;139917;-66
2023/10/28 05:04:48;;;;;;;4.20;2.80;;;;;;;6.88;91.68;98136.15;218624;1257;140524;-66
2023/10/28 05:09:52;;;;;;;3.80;2.90;;;;;;;6.89;92.04;98132.04;218800;1257;140032;-66
2023/10/28 05:14:57;;;;;;;4.80;3.70;;;;;;;6.90;91.81;98137.70;217651;1261;139972;-67
2023/10/28 05:20:06;;;;;;;4.20;3.30;;;;;;;6.89;91.66;98136.06;219215;1258;140909;-67
2023/10/28 05:25:12;;;;;;;6.30;4.20;;;;;;;6.87;91.83;98140.27;217960;1257;139829;-68
2023/10/28 05:30:17;;;;;;;11.60;5.20;;;;;;;6.88;91.87;98145.10;219208;1257;139643;-69
2023/10/28 05:35:22;;;;;;;31.60;10.90;;;;;;;6.89;92.18;98152.01;218249;1257;140436;-69
2023/10/28 05:40:26;;;;;;;24.30;9.30;;;;;;;6.92;91.79;98158.02;220140;1257;140542;-69
2023/10/28 05:45:30;;;;;;;67.90;22.30;;;;;;;6.89;91.59;98161.01;219069;1257;140774;-67
2023/10/28 05:50:37;;;;;;;24.30;12.80;;;;;;;6.86;91.78;98165.48;220227;1257;140251;-70
2023/10/28 05:55:41;;;;;;;22.50;11.80;;;;;;;6.92;92.43;98170.73;219038;1259;140683;-70
2023/10/28 06:00:49;;;;;;;16.50;7.60;;;;;;;6.98;91.89;98172.66;218286;1259;141176;-67
2023/10/28 06:05:54;;;;;;;16.60;7.20;;;;;;;6.98;91.87;98179.40;218274;1259;140433;-67
2023/10/28 06:10:59;;;;;;;8.60;6.50;;;;;;;6.94;91.89;98188.15;217714;1257;139827;-65
2023/10/28 06:16:06;;;;;;;17.20;10.20;;;;;;;6.88;91.70;98192.98;218360;1261;141242;-68
2023/10/28 06:21:11;;;;;;;15.70;7.80;;;;;;;6.85;92.20;98197.50;217791;1259;140100;-68
2023/10/28 06:26:19;;;;;;;13.70;6.80;;;;;;;6.85;92.27;98202.27;218708;1258;142398;-68
2023/10/28 06:31:26;;;;;;;13.70;7.80;;;;;;;6.83;92.23;98207.77;218059;1258;141266;-66
2023/10/28 06:36:30;;;;;;;14.10;8.10;;;;;;;6.81;92.27;98211.98;217659;1258;140230;-67
2023/10/28 06:41:35;;;;;;;16.00;7.40;;;;;;;6.83;92.47;98215.23;218150;1257;140410;-69
2023/10/28 06:46:39;;;;;;;19.10;10.40;;;;;;;6.84;92.79;98216.56;218450;1259;140450;-69
2023/10/28 06:51:43;;;;;;;18.40;9.40;;;;;;;6.87;92.73;98216.88;217804;1260;140651;-68
2023/10/28 06:56:48;;;;;;;28.90;13.20;;;;;;;6.91;93.03;98225.51;217348;1262;139874;-68
2023/10/28 07:01:54;;;;;;;17.70;9.90;;;;;;;6.89;93.26;98234.34;217697;1262;140050;-68
2023/10/28 07:06:59;;;;;;;19.00;10.20;;;;;;;6.88;93.05;98234.58;218460;1257;140857;-68
2023/10/28 07:12:05;;;;;;;24.10;12.10;;;;;;;6.87;93.23;98232.08;219126;1257;140015;-67
2023/10/28 07:17:11;;;;;;;21.00;8.60;;;;;;;6.93;93.98;98239.20;218381;1257;139775;-68
2023/10/28 07:22:16;;;;;;;15.80;6.80;;;;;;;7.02;93.97;98240.89;218930;1259;140380;-66
2023/10/28 07:27:21;;;;;;;16.70;8.40;;;;;;;7.07;93.82;98241.14;218408;1257;140909;-65
2023/10/28 07:32:31;;;;;;;16.50;9.70;;;;;;;7.07;94.13;98243.38;218968;1257;143073;-68
2023/10/28 07:37:36;;;;;;;14.30;7.60;;;;;;;7.14;94.31;98237.79;220206;1257;139867;-67
2023/10/28 07:42:41;;;;;;;11.30;7.30;;;;;;;7.24;94.55;98241.49;219803;1260;140478;-68
2023/10/28 07:47:47;;;;;;;14.90;9.20;;;;;;;7.28;94.23;98248.23;220021;1259;139800;-67
2023/10/28 07:52:52;;;;;;;15.00;9.20;;;;;;;7.27;94.07;98260.15;219275;1259;140625;-66
2023/10/28 07:57:57;;;;;;;14.80;7.70;;;;;;;7.37;94.42;98261.55;219356;1258;140067;-66
2023/10/28 08:03:03;;;;;;;21.70;10.40;;;;;;;7.50;94.66;98267.73;218171;1260;140995;-66
2023/10/28 08:08:09;;;;;;;23.80;9.10;;;;;;;7.68;95.07;98277.71;218837;1257;140543;-67
2023/10/28 08:13:13;;;;;;;13.70;7.50;;;;;;;7.80;95.31;98288.54;218411;1257;140297;-67
2023/10/28 08:18:17;;;;;;;15.30;7.70;;;;;;;7.85;95.23;98292.99;218130;1258;140137;-66
2023/10/28 08:23:22;;;;;;;19.90;9.60;;;;;;;7.89;94.98;98298.45;218571;1258;142375;-66
2023/10/28 08:28:27;;;;;;;16.20;8.50;;;;;;;7.93;95.21;98298.45;218215;1258;139835;-65
2023/10/28 08:33:37;;;;;;;16.10;9.40;;;;;;;8.01;95.35;98303.84;218717;1257;139931;-66
2023/10/28 08:38:44;;;;;;;20.50;11.10;;;;;;;8.03;95.23;98298.12;218061;1258;142247;-66
2023/10/28 08:43:53;;;;;;;13.90;9.30;;;;;;;8.11;95.70;98307.60;217863;1261;140190;-68
2023/10/28 08:48:59;;;;;;;17.30;10.80;;;;;;;8.17;95.80;98308.92;218318;1261;141254;-67
2023/10/28 08:54:07;;;;;;;16.10;11.40;;;;;;;8.24;96.07;98312.10;217828;1260;139989;-67
2023/10/28 08:59:12;;;;;;;17.00;11.30;;;;;;;8.33;96.37;98320.73;218546;1259;140584;-67
2023/10/28 09:04:21;;;;;;;14.90;8.90;;;;;;;8.39;96.09;98326.41;218124;1258;139804;-67
2023/10/28 09:09:27;;;;;;;17.50;10.70;;;;;;;8.47;96.47;98329.30;218084;1259;142036;-67
2023/10/28 09:14:31;;;;;;;20.70;13.40;;;;;;;8.57;96.79;98334.02;216990;1259;141045;-66
2023/10/28 09:19:35;;;;;;;16.90;11.60;;;;;;;8.67;96.81;98337.66;217830;1260;141369;-67
2023/10/28 09:24:46;;;;;;;14.80;10.20;;;;;;;8.75;96.93;98341.48;218152;1260;141040;-67
2023/10/28 09:30:09;;;;;;;14.00;8.70;;;;;;;8.82;96.99;98345.20;218218;1259;140921;-67
2023/10/28 09:35:20;;;;;;;11.90;8.30;;;;;;;8.91;97.22;98348.10;219019;1260;140509;-67
2023/10/28 09:40:27;;;;;;;14.00;9.40;;;;;;;8.97;96.95;98350.42;218527;1259;140381;-68
2023/10/28 09:45:32;;;;;;;17.10;9.90;;;;;;;9.03;97.08;98349.50;219225;1259;141507;-67
2023/10/28 09:50:44;;;;;;;13.30;9.10;;;;;;;9.10;97.14;98355.60;218786;1257;140489;-66
2023/10/28 09:55:55;;;;;;;13.10;10.00;;;;;;;9.19;97.32;98349.25;219462;1260;140879;-66
2023/10/28 10:01:35;;;;;;;15.00;9.90;;;;;;;9.27;97.15;98351.63;219799;1259;140829;-67
2023/10/28 10:06:42;;;;;;;16.40;8.20;;;;;;;9.33;97.15;98347.13;218654;1259;140263;-67
2023/10/28 10:11:50;;;;;;;13.50;9.70;;;;;;;9.36;97.19;98351.52;218698;1260;140641;-68
2023/10/28 10:17:00;;;;;;;14.50;8.60;;;;;;;9.40;97.33;98358.07;219360;1259;140404;-68
2023/10/28 10:22:08;;;;;;;18.70;10.50;;;;;;;9.42;97.30;98358.77;220254;1259;140797;-68
2023/10/28 10:27:12;;;;;;;;;;;;;;;9.47;97.31;98367.00;219466;1260;140025;-68
2023/10/28 10:32:18;;;;;;;13.80;9.10;;;;;;;9.50;97.43;98364.69;218589;1259;126869;-67
2023/10/28 10:37:28;;;;;;;13.00;8.60;;;;;;;9.56;97.44;98370.41;217920;1261;140530;-67
2023/10/28 10:42:33;;;;;;;13.90;8.20;;;;;;;9.64;97.59;98369.80;217585;1260;140688;-67
2023/10/28 10:47:46;;;;;;;11.50;8.90;;;;;;;9.73;97.55;98368.94;217752;1260;140954;-66
2023/10/28 10:53:03;;;;;;;12.40;9.30;;;;;;;9.82;97.66;98381.39;218256;1261;140919;-67
2023/10/28 10:58:10;;;;;;;13.30;8.70;;;;;;;9.81;97.33;98383.25;218319;1259;140415;-67
2023/10/28 11:03:16;;;;;;;12.90;9.40;;;;;;;9.76;97.26;98386.93;218789;1259;140563;-68
2023/10/28 11:08:22;;;;;;;12.00;7.90;;;;;;;9.77;97.20;98390.55;218237;1261;140132;-67
2023/10/28 11:13:30;;;;;;;12.60;9.60;;;;;;;9.82;97.57;98391.98;217956;1261;140745;-67
2023/10/28 11:18:35;;;;;;;15.20;9.70;;;;;;;9.92;97.47;98392.80;218871;1259;139909;-70
2023/10/28 11:23:40;;;;;;;13.20;9.10;;;;;;;10.04;97.30;98392.20;219061;1259;140548;-70
2023/10/28 11:28:46;;;;;;;12.80;9.80;;;;;;;10.22;97.45;98390.70;218177;1260;140959;-67
2023/10/28 11:33:51;;;;;;;17.40;10.40;;;;;;;10.32;97.20;98398.39;218831;1260;140992;-66
2023/10/28 11:39:07;;;;;;;15.20;10.00;;;;;;;10.48;97.69;98404.46;219263;1261;140413;-66
2023/10/28 11:44:12;;;;;;;12.50;10.30;;;;;;;10.63;97.38;98403.61;218131;1259;140784;-69
2023/10/28 11:49:17;;;;;;;10.20;8.40;;;;;;;10.87;97.50;98406.05;218917;1259;140335;-68
2023/10/28 11:54:22;;;;;;;96.10;53.20;;;;;;;11.00;97.20;98404.36;219167;1259;140387;-68
2023/10/28 11:59:28;;;;;;;34.40;20.50;;;;;;;11.14;97.17;98406.10;217369;1257;140404;-67
2023/10/28 12:04:35;;;;;;;18.40;11.20;;;;;;;11.32;97.36;98415.13;217915;1262;142905;-68
2023/10/28 12:09:40;;;;;;;11.30;9.40;;;;;;;11.41;96.93;98423.09;218386;1259;141368;-68
2023/10/28 12:14:45;;;;;;;10.40;7.90;;;;;;;11.51;96.84;98424.35;217948;1261;140233;-67
2023/10/28 12:19:49;;;;;;;13.50;11.30;;;;;;;11.60;96.84;98429.08;218243;1259;140633;-69
2023/10/28 12:24:54;;;;;;;12.10;8.20;;;;;;;11.64;96.59;98431.54;217943;1258;141098;-70
2023/10/28 12:30:00;;;;;;;11.00;8.00;;;;;;;11.68;96.29;98432.98;217869;1260;140221;-66
2023/10/28 12:35:05;;;;;;;10.60;9.50;;;;;;;11.71;96.61;98434.77;217981;1261;140847;-67
2023/10/28 12:40:10;;;;;;;11.90;9.30;;;;;;;11.83;96.75;98431.34;217652;1259;141099;-68
2023/10/28 12:45:14;;;;;;;13.20;9.60;;;;;;;11.98;96.68;98428.33;218534;1258;141355;-69
2023/10/28 12:50:22;;;;;;;5.90;5.40;;;;;;;12.05;96.37;98429.95;218038;1259;140767;-69
2023/10/28 12:55:27;;;;;;;12.10;7.90;;;;;;;12.07;95.90;98437.73;218073;1259;139906;-68
2023/10/28 13:00:33;;;;;;;8.40;6.80;;;;;;;12.09;95.75;98443.13;217864;1258;141640;-72
2023/10/28 13:05:38;;;;;;;17.20;7.90;;;;;;;12.10;95.70;98447.45;218044;1258;142395;-70
2023/10/28 13:10:46;;;;;;;13.80;9.90;;;;;;;12.05;95.56;98448.59;217644;1262;140566;-67
2023/10/28 13:15:53;;;;;;;10.00;8.70;;;;;;;11.99;95.49;98452.52;218439;1259;140213;-68
2023/10/28 13:21:01;;;;;;;13.30;9.80;;;;;;;11.96;95.62;98457.86;218783;1262;152286;-68
2023/10/28 13:26:12;;;;;;;12.50;8.20;;;;;;;11.94;95.60;98453.81;217755;1262;140945;-68
2023/10/28 13:31:23;;;;;;;13.20;8.30;;;;;;;11.94;95.59;98456.92;219605;1259;141370;-68
2023/10/28 13:36:32;;;;;;;8.70;7.50;;;;;;;11.94;95.66;98460.02;219405;1260;141125;-68
2023/10/28 13:41:39;;;;;;;14.50;10.00;;;;;;;11.90;95.16;98462.29;219557;1257;140105;-68
2023/10/28 13:46:48;;;;;;;13.30;10.00;;;;;;;11.83;95.37;98463.34;218622;1257;140787;-66
2023/10/28 13:51:53;;;;;;;15.50;11.10;;;;;;;11.77;95.48;98472.42;218107;1261;140862;-67
2023/10/28 13:57:00;;;;;;;11.90;9.20;;;;;;;11.69;95.20;98479.25;218168;1262;140255;-67
2023/10/28 14:02:08;;;;;;;17.90;13.30;;;;;;;11.62;95.34;98480.62;218452;1258;142262;-67
2023/10/28 14:07:15;;;;;;;31.70;13.40;;;;;;;11.56;95.20;98486.63;217424;1262;140688;-69
2023/10/28 14:12:20;;;;;;;13.80;10.00;;;;;;;11.53;95.31;98489.20;217387;1259;140202;-69
2023/10/28 14:17:28;;;;;;;14.10;10.90;;;;;;;11.46;95.20;98491.07;217370;1262;683508;-70
2023/10/28 14:22:35;;;;;;;17.20;11.90;;;;;;;11.43;95.08;98501.75;217581;1262;141394;-69
2023/10/28 14:27:45;;;;;;;18.50;11.50;;;;;;;11.36;95.15;98506.39;217500;1261;140256;-70
2023/10/28 14:32:53;;;;;;;17.50;11.80;;;;;;;11.30;95.12;98505.08;217494;1261;140445;-69
2023/10/28 14:38:03;;;;;;;20.20;13.10;;;;;;;11.25;95.63;98507.45;217640;1264;141258;-69
2023/10/28 14:43:18;;;;;;;28.70;14.90;;;;;;;11.22;95.37;98513.70;217686;1260;141979;-69
2023/10/28 14:48:27;;;;;;;19.50;12.90;;;;;;;11.18;95.56;98518.01;218058;1263;141919;-69
2023/10/28 14:53:36;;;;;;;17.00;11.70;;;;;;;11.12;95.43;98526.06;218302;1261;141555;-69
2023/10/28 14:58:42;;;;;;;13.30;11.10;;;;;;;11.06;95.35;98532.41;217723;1262;140709;-68
2023/10/28 15:03:49;;;;;;;;;;;;;;;11.01;95.39;98540.47;219077;1262;141785;-68
2023/10/28 15:08:58;;;;;;;14.10;10.60;;;;;;;10.92;95.41;98542.45;217617;1260;127315;-69
2023/10/28 15:14:06;;;;;;;17.60;11.00;;;;;;;10.86;95.80;98551.02;217496;1262;140594;-73
2023/10/28 15:19:13;;;;;;;15.40;11.30;;;;;;;10.81;95.78;98560.44;217962;1263;141484;-70
2023/10/28 15:24:20;;;;;;;13.70;10.00;;;;;;;10.77;95.61;98563.31;218523;1261;141106;-67
2023/10/28 15:29:26;;;;;;;15.10;10.70;;;;;;;10.73;95.62;98567.52;218273;1263;140370;-68
2023/10/28 15:34:32;;;;;;;21.70;12.40;;;;;;;10.69;95.45;98566.18;218643;1261;140913;-69
2023/10/28 15:39:38;;;;;;;18.20;12.90;;;;;;;10.62;95.29;98569.10;218833;1261;140771;-70
2023/10/28 15:44:49;;;;;;;16.50;13.40;;;;;;;10.59;95.25;98577.15;219143;1261;141879;-68
2023/10/28 15:50:02;;;;;;;13.30;10.80;;;;;;;10.53;94.83;98584.80;218197;1261;140233;-68
2023/10/28 15:55:15;;;;;;;17.50;13.60;;;;;;;10.39;94.48;98589.61;218416;1262;140616;-67
2023/10/28 16:00:25;;;;;;;17.50;13.20;;;;;;;10.32;95.06;98594.27;217830;1263;140221;-68
2023/10/28 16:05:30;;;;;;;15.10;13.20;;;;;;;10.31;95.33;98595.23;218630;1263;140282;-69
2023/10/28 16:10:36;;;;;;;24.30;15.60;;;;;;;10.29;95.22;98597.56;217239;1260;140231;-69
2023/10/28 16:15:52;;;;;;;27.50;14.70;;;;;;;10.25;95.34;98596.80;217895;1261;141113;-69
2023/10/28 16:21:01;;;;;;;21.40;15.40;;;;;;;10.20;95.22;98606.89;217906;1263;140436;-68
2023/10/28 16:26:09;;;;;;;17.00;12.80;;;;;;;10.15;95.24;98612.59;217781;1263;223303;-70
2023/10/28 16:31:15;;;;;;;19.70;12.10;;;;;;;10.07;95.06;98618.03;218168;1260;141241;-70
2023/10/28 16:36:22;;;;;;;27.60;12.70;;;;;;;9.99;94.81;98624.34;217512;1260;140374;-70
2023/10/28 16:41:32;;;;;;;18.90;13.20;;;;;;;9.89;94.89;98625.65;217801;1263;140430;-68
2023/10/28 16:46:41;;;;;;;15.50;11.80;;;;;;;9.82;95.08;98631.67;217875;1260;140713;-69
2023/10/28 16:51:51;;;;;;;21.00;12.70;;;;;;;9.75;95.11;98637.28;217293;1261;141638;-70
2023/10/28 16:56:59;;;;;;;18.50;12.40;;;;;;;9.72;95.39;98639.08;217608;1260;140333;-72
2023/10/28 17:02:04;;;;;;;15.20;11.70;;;;;;;9.71;95.48;98642.15;217705;1259;140295;-73
2023/10/28 17:07:09;;;;;;;16.10;10.80;;;;;;;9.64;95.37;98646.41;217605;1261;140092;-70
2023/10/28 17:12:15;;;;;;;21.10;15.90;;;;;;;9.60;95.80;98654.14;218154;1260;141423;-69
2023/10/28 17:17:20;;;;;;;23.40;17.80;;;;;;;9.64;96.10;98657.85;217941;1260;141414;-71
2023/10/28 17:22:25;;;;;;;27.70;17.10;;;;;;;9.62;95.82;98661.02;218961;1259;140676;-71
2023/10/28 17:27:33;;;;;;;24.80;17.80;;;;;;;9.59;96.16;98662.65;217860;1259;140379;-69
2023/10/28 17:32:38;;;;;;;25.40;17.40;;;;;;;9.59;96.32;98662.38;218931;1260;142032;-69
2023/10/28 17:37:47;;;;;;;26.10;18.70;;;;;;;9.62;96.48;98666.18;218875;1260;140820;-68
2023/10/28 17:42:53;;;;;;;25.00;17.50;;;;;;;9.64;96.41;98668.27;218947;1260;140995;-69
2023/10/28 17:48:02;;;;;;;28.50;18.40;;;;;;;9.65;96.78;98666.21;219197;1260;140534;-70
2023/10/28 17:53:08;;;;;;;28.50;19.40;;;;;;;9.65;96.74;98666.05;218159;1261;140958;-71
2023/10/28 17:58:16;;;;;;;33.40;19.10;;;;;;;9.66;97.12;98670.58;218861;1260;142222;-71
2023/10/28 18:03:30;;;;;;;26.60;18.20;;;;;;;9.71;97.36;98677.77;218475;1259;141582;-70
2023/10/28 18:08:34;;;;;;;27.50;18.70;;;;;;;9.71;97.06;98680.32;218101;1260;141309;-70
2023/10/28 18:13:39;;;;;;;24.20;17.60;;;;;;;9.71;97.23;98686.01;218400;1260;139905;-73
2023/10/28 18:18:42;;;;;;;28.70;18.00;;;;;;;9.71;97.45;98687.61;217804;1260;140375;-72
2023/10/28 18:23:48;;;;;;;32.50;19.70;;;;;;;9.73;97.64;98695.24;217557;1260;209630;-71
2023/10/28 18:28:52;;;;;;;23.30;16.40;;;;;;;9.75;97.77;98704.84;217864;1262;140442;-68
2023/10/28 18:33:58;;;;;;;30.90;17.60;;;;;;;9.76;97.80;98703.99;218357;1259;140420;-68
2023/10/28 18:39:01;;;;;;;21.90;13.90;;;;;;;9.81;98.21;98707.45;217766;1259;140566;-68
2023/10/28 18:44:46;;;;;;;20.90;13.50;;;;;;;9.82;98.04;98708.21;217958;1260;140201;-67
2023/10/28 18:49:54;;;;;;;19.70;13.80;;;;;;;9.83;98.28;98714.77;217624;1259;141072;-68
2023/10/28 18:54:58;;;;;;;18.90;13.60;;;;;;;9.85;98.18;98719.05;217795;1260;141479;-67
2023/10/28 19:00:05;;;;;;;21.60;14.80;;;;;;;9.85;98.35;98726.55;217473;1259;140786;-68
2023/10/28 19:05:08;;;;;;;19.40;13.50;;;;;;;9.83;98.40;98737.23;218600;1259;140515;-72
2023/10/28 19:10:14;;;;;;;19.10;11.90;;;;;;;9.81;98.67;98739.98;217643;1259;140317;-71
2023/10/28 19:15:17;;;;;;;17.40;10.60;;;;;;;9.81;98.62;98747.06;217794;1259;141306;-71
2023/10/28 19:20:23;;;;;;;13.30;10.30;;;;;;;9.79;98.73;98754.19;217788;1260;140431;-68
2023/10/28 19:25:29;;;;;;;15.30;10.50;;;;;;;9.78;99.00;98759.19;217694;1259;140128;-69
2023/10/28 19:30:34;;;;;;;12.40;9.00;;;;;;;9.81;99.06;98763.94;218608;1259;140859;-69
2023/10/28 19:35:41;;;;;;;9.00;7.00;;;;;;;9.83;99.35;98766.04;217946;1259;140985;-70
2023/10/28 19:40:49;;;;;;;15.70;8.50;;;;;;;9.86;99.45;98761.64;217928;1261;139950;-71
2023/10/28 19:45:56;;;;;;;10.60;8.20;;;;;;;9.88;99.34;98761.23;217742;1262;140131;-69
2023/10/28 19:51:05;;;;;;;10.10;7.40;;;;;;;9.90;99.54;98766.84;218136;1259;140313;-69
2023/10/28 19:56:09;;;;;;;7.40;6.10;;;;;;;9.94;99.66;98770.13;218214;1259;140255;-70
2023/10/28 20:01:16;;;;;;;11.10;7.70;;;;;;;9.94;99.63;98773.48;218240;1260;140608;-71
2023/10/28 20:06:22;;;;;;;9.30;7.50;;;;;;;9.95;99.65;98786.42;218254;1259;140447;-70
2023/10/28 20:11:26;;;;;;;8.40;6.80;;;;;;;9.97;99.60;98797.95;218397;1257;139746;-68
2023/10/28 20:16:31;;;;;;;10.00;6.40;;;;;;;9.98;99.79;98796.79;217499;1260;140809;-68
2023/10/28 20:21:37;;;;;;;8.70;6.20;;;;;;;9.98;99.71;98800.94;217860;1257;140734;-70
2023/10/28 20:26:44;;;;;;;10.20;7.20;;;;;;;9.97;99.69;98808.06;218400;1257;140049;-68
2023/10/28 20:31:48;;;;;;;9.70;7.70;;;;;;;9.97;99.70;98813.08;218513;1259;140208;-70
2023/10/28 20:36:52;;;;;;;8.30;6.10;;;;;;;9.98;99.82;98816.92;217461;1258;140818;-68
2023/10/28 20:41:58;;;;;;;6.40;5.50;;;;;;;9.97;99.80;98820.48;217624;1257;141574;-68
2023/10/28 20:47:03;;;;;;;10.60;5.90;;;;;;;9.95;99.69;98824.81;217682;1258;140973;-70
2023/10/28 20:52:08;;;;;;;10.80;8.20;;;;;;;9.91;99.79;98829.14;217334;1258;141132;-68
2023/10/28 20:57:13;;;;;;;10.60;7.90;;;;;;;9.90;99.88;98829.30;217576;1260;141357;-68
2023/10/28 21:02:17;;;;;;;15.50;10.20;;;;;;;9.89;99.96;98831.27;218234;1261;139953;-69
2023/10/28 21:07:21;;;;;;;10.20;8.40;;;;;;;9.87;99.91;98832.02;219185;1258;141220;-69
2023/10/28 21:12:24;;;;;;;11.90;8.20;;;;;;;9.84;99.91;98838.01;217981;1258;140437;-69
2023/10/28 21:17:28;;;;;;;16.90;11.00;;;;;;;9.80;99.69;98844.10;217334;1258;140271;-68
2023/10/28 21:22:32;;;;;;;14.20;9.00;;;;;;;9.78;99.85;98848.51;218476;1257;140853;-69
2023/10/28 21:27:36;;;;;;;9.20;8.20;;;;;;;9.75;99.77;98852.05;218249;1259;140318;-70
2023/10/28 21:32:40;;;;;;;14.00;11.00;;;;;;;9.73;99.87;98850.42;218317;1257;140361;-70
2023/10/28 21:37:44;;;;;;;11.30;8.30;;;;;;;9.73;99.82;98856.83;218023;1259;141086;-71
2023/10/28 21:42:48;;;;;;;16.00;8.20;;;;;;;9.72;99.85;98854.31;218814;1262;141526;-70
2023/10/28 21:47:53;;;;;;;10.90;9.80;;;;;;;9.74;99.93;98856.52;218464;1257;140912;-71
2023/10/28 21:52:58;;;;;;;13.10;8.60;;;;;;;9.74;100.00;98865.35;218679;1257;140191;-70
2023/10/28 21:58:04;;;;;;;10.80;8.00;;;;;;;9.77;100.00;98860.38;218416;1259;140920;-68
2023/10/28 22:03:14;;;;;;;10.20;8.60;;;;;;;9.78;100.00;98865.91;218070;1257;141214;-71
2023/10/28 22:08:18;;;;;;;9.30;7.60;;;;;;;9.82;100.00;98866.69;218117;1259;140757;-68
2023/10/28 22:13:23;;;;;;;10.70;8.00;;;;;;;9.85;100.00;98862.25;218375;1259;141723;-70
2023/10/28 22:18:27;;;;;;;11.80;9.40;;;;;;;9.88;100.00;98867.56;218091;1258;143179;-72
2023/10/28 22:23:34;;;;;;;8.60;7.00;;;;;;;9.91;100.00;98870.14;217658;1257;140597;-71
2023/10/28 22:28:38;;;;;;;9.70;6.60;;;;;;;9.89;100.00;98871.52;218129;1257;208303;-71
2023/10/28 22:33:42;;;;;;;10.40;7.40;;;;;;;9.83;99.97;98867.34;217642;1261;140249;-70
2023/10/28 22:38:45;;;;;;;14.20;8.20;;;;;;;9.74;99.75;98863.70;217470;1258;140813;-72
2023/10/28 22:43:50;;;;;;;8.40;7.30;;;;;;;9.66;99.81;98866.91;217455;1259;140222;-71
2023/10/28 22:48:54;;;;;;;13.70;7.80;;;;;;;9.59;99.83;98869.38;217591;1260;140259;-72
2023/10/28 22:53:58;;;;;;;15.80;8.00;;;;;;;9.54;99.80;98876.23;217607;1258;141496;-71
2023/10/28 22:59:03;;;;;;;14.20;10.20;;;;;;;9.50;99.88;98877.89;218013;1259;140369;-72
2023/10/28 23:04:08;;;;;;;14.40;10.00;;;;;;;9.45;99.60;98881.41;218078;1257;140295;-70
2023/10/28 23:09:13;;;;;;;13.10;9.00;;;;;;;9.35;99.46;98878.52;218121;1257;140676;-71
2023/10/28 23:14:16;;;;;;;12.80;8.80;;;;;;;9.27;99.60;98871.82;217721;1257;140237;-71
2023/10/28 23:19:21;;;;;;;10.90;8.90;;;;;;;9.26;99.89;98874.73;218264;1257;140323;-70
2023/10/28 23:24:26;;;;;;;11.90;8.40;;;;;;;9.26;100.00;98878.23;218015;1259;139975;-71